Ana Sayfa
METAR-TAF:

METAR-TAF

Havaalanları :

Latacunga, Ekvador

Enlem: 00-55S, Boylam: 078-37W, yükseklik: 2785 m

Güncel hava durumu gözlemi

Rapor saat 00:00 UTC de 10 dakika önce yapıldı.
Rüzgar güneydan 14 kt
Sıcaklık 11°C
Nem 76%
Basınç 1029 hPa
Görüş mesafesi 10 km veya daha fazla
3000 ft yükseklikte parçalı bulutlu

METAR: SELT 190000Z 18014KT 9999 SCT030 11/07 Q1029

Saat: 19:10 (00:10 UTC)

Tahmin

Rapor saat 22:30 UTC de 1 saat ve 40 dakika önce yapıldı.
Ayın 19'si saat 00 UTC'den ayın 19'si saat 24 UTC'ye kadar geçerli Tahmin
Rüzgar güneydan 10 kt
Görüş mesafesi 10 km veya daha fazla
3000 ft yükseklikte parçalı bulutlu
Dönüşüyor
ayın 19'si saat 12 UTC'den ayın 19'si saat 13 UTC'ye kadar
Rüzgar güneydan 15 kt
3000 ft yükseklikte parçalı çok bulutlu
Dönüşüyor
ayın 19'si saat 17 UTC'den ayın 19'si saat 18 UTC'ye kadar
Rüzgar güneydan 20 kt

TAF: SELT 182230Z 1900/1924 18010KT 9999 SCT030 BECMG 1912/1913 18015KT BKN030 BECMG 1917/1918 18020KT TX16/1919Z TN05/1911Z

4.000'den fazla havaalanı için hava durumu gözlemleri ve tahminleri (METAR ve TAF raporları).

Kullanılabilir istasyonlar harita üzerinde sarı ve kırmızı noktalarla gösterilir.

İstasyonun adını görmek için fareyi noktanın üzerinde gezdirin.

Sonrasında hava gözlem ve tahminlerini görmek için tıklayın.

Haritayı değiştirmek için: yaklaştırmak için siyah artı işaretli yeşil düğmeye ve uzaklaştırmak için de eksi işaretli düğmeye hızla tıklayın; bitişik haritalar için yeşil okları kullanın.


METAR-TAF: